Time;durP1;ratioP1;P1;durP2;ratioP2;P2;SDS_P1;SDS_P2;PMS_P1;PMS_P2;Temp;Humidity;BMP_temperature;BMP_pressure;BME280_temperature;BME280_humidity;BME280_pressure;Samples;Min_cycle;Max_cycle;Signal;HPM_P1;HPM_P2
2023/05/24 00:01:24;;;;;;;8.80;2.15;;;;;;;9.52;79.11;102558.50;4997301;28;20085;-71
2023/05/24 00:03:57;;;;;;;10.63;2.47;;;;;;;9.45;79.27;102559.44;4996778;28;20057;-71
2023/05/24 00:06:25;;;;;;;9.02;2.28;;;;;;;9.44;79.83;102560.31;4990038;28;20289;-71
2023/05/24 00:08:50;;;;;;;8.00;2.22;;;;;;;9.42;80.00;102552.47;4996309;28;20042;-71
2023/05/24 00:11:16;;;;;;;6.60;2.40;;;;;;;9.38;79.98;102546.38;4997276;28;20054;-71
2023/05/24 00:13:41;;;;;;;6.68;2.42;;;;;;;9.35;79.84;102543.81;4996765;28;20034;-71
2023/05/24 00:16:07;;;;;;;7.05;2.55;;;;;;;9.34;79.62;102536.84;4996828;28;20052;-71
2023/05/24 00:18:32;;;;;;;5.30;2.03;;;;;;;9.35;79.99;102532.47;4996189;28;20057;-71
2023/05/24 00:20:58;;;;;;;4.50;2.05;;;;;;;9.31;80.16;102534.25;4996832;28;20285;-71
2023/05/24 00:23:26;;;;;;;8.80;2.50;;;;;;;9.30;80.16;102535.16;4991314;28;20050;-71
2023/05/24 00:25:51;;;;;;;8.30;2.20;;;;;;;9.27;80.46;102537.78;4996799;28;20102;-71
2023/05/24 00:28:17;;;;;;;6.40;2.20;;;;;;;9.23;80.55;102533.47;4997438;28;20038;-71
2023/05/24 00:30:42;;;;;;;8.90;2.53;;;;;;;9.19;80.54;102526.53;4996321;28;20046;-71
2023/05/24 00:33:08;;;;;;;7.05;2.10;;;;;;;9.19;80.85;102536.97;4997588;28;20041;-71
2023/05/24 00:35:33;;;;;;;5.20;2.08;;;;;;;9.21;80.66;102532.59;4999008;28;20058;-71
2023/05/24 00:37:59;;;;;;;5.93;2.03;;;;;;;9.21;80.47;102535.22;5000533;28;20046;-71
2023/05/24 00:40:24;;;;;;;7.07;1.90;;;;;;;9.22;80.44;102534.31;4997335;28;20034;-71
2023/05/24 00:42:50;;;;;;;4.72;2.03;;;;;;;9.22;80.65;102539.56;4999886;28;20337;-71
2023/05/24 00:45:15;;;;;;;9.20;2.55;;;;;;;9.18;80.84;102537.84;4998516;28;20121;-71
2023/05/24 00:47:41;;;;;;;5.95;1.90;;;;;;;9.16;80.70;102529.16;4998056;28;20026;-71
2023/05/24 00:50:11;;;;;;;6.35;2.03;;;;;;;9.16;81.01;102532.63;4997646;28;20073;-71
2023/05/24 00:52:38;;;;;;;3.55;2.03;;;;;;;9.16;80.67;102542.22;4999605;28;20030;-71
2023/05/24 00:55:04;;;;;;;8.13;2.58;;;;;;;9.15;81.18;102543.97;4999860;28;20038;-71
2023/05/24 00:57:30;;;;;;;3.25;1.70;;;;;;;9.16;81.34;102544.84;4999551;28;20018;-71
2023/05/24 00:59:56;;;;;;;6.75;2.63;;;;;;;9.14;81.24;102539.63;4998757;28;20046;-71
2023/05/24 01:02:21;;;;;;;7.05;3.10;;;;;;;9.10;81.06;102539.66;5000012;28;20026;-71
2023/05/24 01:04:47;;;;;;;10.05;2.25;;;;;;;9.05;81.23;102531.84;4999003;28;20072;-71
2023/05/24 01:07:25;;;;;;;6.03;2.33;;;;;;;9.02;81.68;102537.97;4999907;28;20116;-71
2023/05/24 01:10:12;;;;;;;6.30;2.20;;;;;;;8.99;81.29;102532.75;4999898;28;20329;-71
2023/05/24 01:12:51;;;;;;;10.45;3.45;;;;;;;8.94;81.97;102526.69;4999499;28;20037;-71
2023/05/24 01:15:23;;;;;;;8.02;2.88;;;;;;;8.91;82.14;102524.09;4999195;28;20026;-71
2023/05/24 01:18:28;;;;;;;7.50;2.95;;;;;;;8.89;82.36;102522.38;4991755;28;20290;-71
2023/05/24 01:21:14;;;;;;;7.32;3.08;;;;;;;8.87;82.53;102525.00;4992708;28;20391;-71
2023/05/24 01:23:45;;;;;;;8.30;2.55;;;;;;;8.91;82.57;102531.06;4997508;28;20532;-72
2023/05/24 01:26:27;;;;;;;10.50;2.45;;;;;;;8.91;82.41;102534.53;4994736;28;20101;-71
2023/05/24 01:28:53;;;;;;;5.78;2.03;;;;;;;8.92;82.06;102536.28;4999122;28;20160;-71
2023/05/24 01:31:19;;;;;;;6.00;2.25;;;;;;;8.92;82.12;102533.69;4979707;28;20349;-71
2023/05/24 01:33:44;;;;;;;5.85;2.40;;;;;;;8.89;82.09;102531.06;4999052;28;20041;-71
2023/05/24 01:36:10;;;;;;;7.63;2.30;;;;;;;8.86;82.13;102531.13;4998855;28;20030;-71
2023/05/24 01:38:37;;;;;;;6.03;2.55;;;;;;;8.82;82.44;102524.16;4998809;28;20038;-71
2023/05/24 01:41:25;;;;;;;4.57;2.40;;;;;;;8.77;82.25;102520.72;4999438;28;20042;-71
2023/05/24 01:44:26;;;;;;;3.85;2.25;;;;;;;8.76;82.57;102525.06;4998877;28;20102;-71
2023/05/24 01:47:01;;;;;;;5.10;2.22;;;;;;;8.77;82.45;102524.22;4998515;28;20076;-71
2023/05/24 01:49:30;;;;;;;4.03;1.92;;;;;;;8.76;82.53;102525.06;4992570;28;20265;-71
2023/05/24 01:52:26;;;;;;;7.03;2.30;;;;;;;8.78;82.59;102517.22;4998785;28;20067;-71
2023/05/24 01:54:52;;;;;;;6.03;1.88;;;;;;;8.79;82.28;102524.19;4997879;28;20253;-71
2023/05/24 01:57:20;;;;;;;3.00;2.15;;;;;;;8.78;82.69;102520.69;4998936;28;20098;-71
2023/05/24 01:59:46;;;;;;;5.18;2.20;;;;;;;8.75;82.58;102519.84;4998630;28;20053;-71
2023/05/24 02:02:12;;;;;;;5.72;2.80;;;;;;;8.72;83.21;102515.53;4998779;28;20042;-71
2023/05/24 02:04:37;;;;;;;10.23;2.75;;;;;;;8.71;83.17;102518.13;4997993;28;20041;-71
2023/05/24 02:07:03;;;;;;;8.75;2.33;;;;;;;8.68;83.12;102516.44;4998150;28;20203;-71
2023/05/24 02:09:29;;;;;;;5.82;1.90;;;;;;;8.66;82.98;102518.19;4998339;28;20105;-71
2023/05/24 02:11:54;;;;;;;9.40;2.67;;;;;;;8.64;83.14;102519.91;4998120;28;20294;-71
2023/05/24 02:14:20;;;;;;;8.18;2.33;;;;;;;8.63;83.52;102528.63;4998816;28;20060;-71
2023/05/24 02:16:46;;;;;;;6.55;2.95;;;;;;;8.61;83.24;102526.03;4997786;28;20105;-71
2023/05/24 02:19:12;;;;;;;8.70;2.63;;;;;;;8.59;83.35;102514.72;4998898;28;20030;-71
2023/05/24 02:21:38;;;;;;;8.70;2.72;;;;;;;8.58;83.61;102520.81;4997992;28;20050;-71
2023/05/24 02:24:03;;;;;;;5.32;2.30;;;;;;;8.59;83.46;102511.25;4998189;28;20065;-71
2023/05/24 02:26:29;;;;;;;7.05;2.65;;;;;;;8.58;83.56;102509.50;4995991;28;20033;-71
2023/05/24 02:28:55;;;;;;;7.70;2.15;;;;;;;8.57;83.27;102513.88;4997989;28;20050;-71
2023/05/24 02:31:21;;;;;;;9.32;3.03;;;;;;;8.54;83.38;102519.09;4998881;28;20362;-71
2023/05/24 02:33:46;;;;;;;5.15;2.42;;;;;;;8.49;83.55;102510.41;4997961;28;20391;-71
2023/05/24 02:36:12;;;;;;;4.25;2.35;;;;;;;8.43;84.26;102510.47;4997930;28;20386;-71
2023/05/24 02:38:38;;;;;;;5.75;2.30;;;;;;;8.43;84.76;102510.47;4997840;28;20364;-71
2023/05/24 02:41:03;;;;;;;7.68;2.40;;;;;;;8.45;84.70;102516.53;4998029;28;20365;-71
2023/05/24 02:43:29;;;;;;;10.75;2.33;;;;;;;8.44;84.34;102502.63;4997263;28;20118;-71
2023/05/24 02:45:54;;;;;;;4.35;2.50;;;;;;;8.47;84.38;102509.56;4997969;28;20101;-71
2023/05/24 02:48:20;;;;;;;5.85;2.58;;;;;;;8.47;84.11;102514.78;4997598;28;20248;-71
2023/05/24 02:50:45;;;;;;;4.00;1.88;;;;;;;8.48;84.44;102519.16;4997662;28;20030;-71
2023/05/24 02:53:11;;;;;;;6.38;2.25;;;;;;;8.49;84.53;102522.63;4990001;28;20245;-71
2023/05/24 02:55:36;;;;;;;3.30;1.95;;;;;;;8.49;84.42;102520.88;4997183;28;20054;-71
2023/05/24 02:58:02;;;;;;;6.53;2.63;;;;;;;8.49;84.10;102515.66;4997632;28;20041;-71
2023/05/24 03:00:27;;;;;;;7.45;2.38;;;;;;;8.47;84.20;102512.19;4998074;28;20038;-72
2023/05/24 03:02:54;;;;;;;8.73;3.28;;;;;;;8.43;84.30;102520.91;4997060;28;20038;-72
2023/05/24 03:05:19;;;;;;;4.65;2.40;;;;;;;8.44;84.73;102518.28;4997458;28;20053;-72
2023/05/24 03:07:45;;;;;;;7.32;3.03;;;;;;;8.43;84.25;102518.28;4995839;28;20062;-72
2023/05/24 03:10:10;;;;;;;8.00;2.70;;;;;;;8.40;84.32;102516.56;4997957;28;20245;-72
2023/05/24 03:12:36;;;;;;;8.95;3.25;;;;;;;8.39;84.62;102516.56;4997186;28;20049;-72
2023/05/24 03:15:01;;;;;;;6.03;3.08;;;;;;;8.37;84.64;102513.94;4997631;28;20030;-72
2023/05/24 03:17:27;;;;;;;11.70;3.60;;;;;;;8.36;84.50;102506.97;4997131;28;20038;-72
2023/05/24 03:19:52;;;;;;;9.45;2.80;;;;;;;8.35;84.76;102504.38;4997455;28;20330;-72
2023/05/24 03:22:18;;;;;;;6.03;2.90;;;;;;;8.33;84.61;102501.78;4996925;28;20130;-72
2023/05/24 03:24:45;;;;;;;4.60;2.80;;;;;;;8.33;84.88;102495.69;4994072;28;20038;-72
2023/05/24 03:27:10;;;;;;;6.20;3.08;;;;;;;8.34;84.77;102500.91;4994628;28;20058;-72
2023/05/24 03:29:36;;;;;;;4.10;2.50;;;;;;;8.36;84.68;102504.38;4996871;28;20046;-72
2023/05/24 03:32:01;;;;;;;8.02;2.88;;;;;;;8.36;84.48;102503.50;4997246;28;20042;-72
2023/05/24 03:34:26;;;;;;;6.53;2.67;;;;;;;8.36;84.55;102506.13;4997113;28;20081;-72
2023/05/24 03:36:52;;;;;;;5.70;2.40;;;;;;;8.35;84.51;102502.66;4996834;28;20050;-72
2023/05/24 03:39:17;;;;;;;3.95;2.42;;;;;;;8.34;84.30;102497.44;4993072;28;20237;-72
2023/05/24 03:41:43;;;;;;;4.68;2.90;;;;;;;8.32;84.61;102494.81;4995645;28;20042;-72
2023/05/24 03:44:09;;;;;;;7.65;3.35;;;;;;;8.32;84.56;102500.03;4994081;28;20236;-72
2023/05/24 03:46:34;;;;;;;4.43;2.55;;;;;;;8.31;84.56;102495.69;4997092;28;20224;-72
2023/05/24 03:49:00;;;;;;;3.78;2.42;;;;;;;8.30;84.74;102493.09;4993373;28;20038;-72
2023/05/24 03:51:28;;;;;;;5.70;2.50;;;;;;;8.24;84.82;102493.97;4993128;28;20106;-72
2023/05/24 03:53:57;;;;;;;8.32;3.70;;;;;;;8.17;85.13;102495.75;4997017;28;20077;-72
2023/05/24 03:56:25;;;;;;;11.02;3.13;;;;;;;8.19;85.42;102495.75;4997622;28;20120;-72
2023/05/24 03:58:51;;;;;;;7.22;3.47;;;;;;;8.19;85.58;102504.44;4996179;28;20045;-72
2023/05/24 04:01:18;;;;;;;5.82;2.83;;;;;;;8.21;85.61;102492.25;4995690;28;20026;-72
2023/05/24 04:03:44;;;;;;;9.35;2.97;;;;;;;8.23;85.41;102487.88;4996363;28;20042;-72
2023/05/24 04:06:11;;;;;;;9.80;3.13;;;;;;;8.22;85.22;102485.28;4997077;28;20046;-72
2023/05/24 04:08:36;;;;;;;9.18;2.88;;;;;;;8.20;86.03;102493.13;4998144;28;20089;-72
2023/05/24 04:11:01;;;;;;;5.47;2.92;;;;;;;8.21;86.06;102494.88;5000716;28;20245;-72
2023/05/24 04:13:27;;;;;;;6.18;3.00;;;;;;;8.22;86.38;102499.22;5000565;28;20285;-72
2023/05/24 04:15:52;;;;;;;7.70;3.40;;;;;;;8.23;86.55;102507.91;5000526;28;20241;-72
2023/05/24 04:18:18;;;;;;;7.47;3.47;;;;;;;8.23;86.77;102514.00;5000118;28;20066;-72
2023/05/24 04:20:43;;;;;;;8.13;3.63;;;;;;;8.26;86.77;102516.59;5000161;28;20041;-72
2023/05/24 04:23:09;;;;;;;11.65;3.65;;;;;;;8.26;87.05;102513.13;5000306;28;20100;-72
2023/05/24 04:25:34;;;;;;;5.32;3.72;;;;;;;8.29;87.76;102517.47;4999990;28;20042;-72
2023/05/24 04:28:01;;;;;;;11.93;3.50;;;;;;;8.30;88.45;102511.38;5000569;28;20042;-72
2023/05/24 04:30:28;;;;;;;14.30;4.07;;;;;;;8.32;89.06;102510.47;5000511;28;20249;-72
2023/05/24 04:32:57;;;;;;;7.88;3.58;;;;;;;8.37;89.40;102523.53;5000032;28;20053;-72
2023/05/24 04:35:24;;;;;;;6.72;3.55;;;;;;;8.42;89.43;102525.28;5000643;28;20034;-72
2023/05/24 04:37:50;;;;;;;6.10;3.58;;;;;;;8.49;89.23;102525.22;4996599;28;20117;-72
2023/05/24 04:40:16;;;;;;;8.45;3.50;;;;;;;8.53;89.50;102517.38;4994660;28;20034;-72
2023/05/24 04:42:41;;;;;;;10.10;3.85;;;;;;;8.60;89.54;102521.69;4996300;28;20066;-72
2023/05/24 04:45:07;;;;;;;7.22;3.40;;;;;;;8.65;89.46;102514.69;4994077;28;20043;-72
2023/05/24 04:47:33;;;;;;;8.30;3.85;;;;;;;8.71;89.84;102513.78;4999525;28;20044;-72
2023/05/24 04:49:58;;;;;;;7.50;3.78;;;;;;;8.77;89.81;102512.91;5000084;28;20038;-72
2023/05/24 04:52:23;;;;;;;8.25;3.17;;;;;;;8.82;90.02;102508.47;5000540;28;20081;-72
2023/05/24 04:54:50;;;;;;;7.30;3.50;;;;;;;8.88;89.64;102510.19;4993146;28;20241;-72
2023/05/24 04:57:15;;;;;;;9.95;3.38;;;;;;;8.92;89.12;102507.56;5000032;28;20050;-72
2023/05/24 04:59:41;;;;;;;7.65;3.33;;;;;;;8.97;89.77;102507.53;4999588;28;20121;-72
2023/05/24 05:02:06;;;;;;;8.10;3.42;;;;;;;9.01;89.79;102509.25;4999792;28;20214;-72
2023/05/24 05:04:32;;;;;;;5.22;3.10;;;;;;;9.05;89.19;102515.31;4999656;28;20105;-72
2023/05/24 05:06:57;;;;;;;7.72;3.53;;;;;;;9.09;89.03;102506.56;4999589;28;20419;-72
2023/05/24 05:09:23;;;;;;;8.82;3.47;;;;;;;9.12;88.88;102507.41;4992796;28;20065;-72
2023/05/24 05:11:49;;;;;;;9.07;3.15;;;;;;;9.16;88.66;102503.03;4999569;28;20042;-72
2023/05/24 05:14:15;;;;;;;10.02;3.20;;;;;;;9.19;88.44;102503.00;4997801;28;20042;-72
2023/05/24 05:16:41;;;;;;;6.47;2.90;;;;;;;9.23;88.85;102510.78;4998846;28;20097;-72
2023/05/24 05:19:06;;;;;;;10.55;3.08;;;;;;;9.27;88.82;102510.78;4995703;28;20070;-72
2023/05/24 05:21:33;;;;;;;6.20;2.97;;;;;;;9.30;88.99;102506.38;4991103;28;20042;-72
2023/05/24 05:23:59;;;;;;;12.85;4.35;;;;;;;9.34;89.95;102512.47;4998732;28;20221;-72
2023/05/24 05:26:26;;;;;;;13.10;4.07;;;;;;;9.37;92.18;102502.84;4999292;28;20046;-72
2023/05/24 05:28:53;;;;;;;14.07;3.97;;;;;;;9.43;92.96;102504.53;4997233;28;20088;-72
2023/05/24 05:31:19;;;;;;;11.73;3.70;;;;;;;9.49;92.56;102514.06;4993987;28;20038;-71
2023/05/24 05:33:44;;;;;;;15.35;3.70;;;;;;;9.53;92.95;102514.03;4997815;28;20089;-71
2023/05/24 05:36:10;;;;;;;12.77;3.60;;;;;;;9.59;92.49;102513.09;4990730;28;20345;-72
2023/05/24 05:38:35;;;;;;;17.77;4.13;;;;;;;9.65;92.38;102518.25;4998227;28;20069;-71
2023/05/24 05:41:00;;;;;;;24.83;4.22;;;;;;;9.69;92.90;102519.09;4997641;28;20064;-71
2023/05/24 05:43:26;;;;;;;13.13;3.50;;;;;;;9.73;93.95;102516.44;4997523;28;20101;-71
2023/05/24 05:45:51;;;;;;;14.35;4.60;;;;;;;9.75;94.16;102517.28;4996928;28;20598;-71
2023/05/24 05:48:16;;;;;;;15.23;4.55;;;;;;;9.83;93.99;102526.81;4998691;28;20042;-71
2023/05/24 05:50:42;;;;;;;17.10;4.47;;;;;;;9.88;94.23;102525.03;4994062;28;20049;-71
2023/05/24 05:53:07;;;;;;;10.98;3.30;;;;;;;9.91;93.84;102527.59;4995436;28;20229;-71
2023/05/24 05:55:33;;;;;;;11.07;3.65;;;;;;;9.94;93.76;102528.41;4993941;28;20045;-71
2023/05/24 05:57:58;;;;;;;20.58;3.40;;;;;;;9.98;93.66;102529.25;4998953;28;20038;-71
2023/05/24 06:00:23;;;;;;;19.45;3.80;;;;;;;10.00;93.67;102530.09;4994083;28;20070;-71
2023/05/24 06:02:49;;;;;;;22.80;4.93;;;;;;;10.05;93.87;102535.28;4990397;28;20376;-72
2023/05/24 06:05:14;;;;;;;11.63;3.67;;;;;;;10.06;94.38;102532.66;4998564;28;20098;-72
2023/05/24 06:07:40;;;;;;;12.00;3.78;;;;;;;10.10;94.00;102530.88;4995052;28;20165;-71
2023/05/24 06:10:06;;;;;;;17.90;4.07;;;;;;;10.14;94.07;102525.56;4997334;28;20522;-71
2023/05/24 06:12:31;;;;;;;15.68;2.88;;;;;;;10.18;93.94;102529.88;4994378;28;20214;-72
2023/05/24 06:14:58;;;;;;;23.85;4.57;;;;;;;10.24;93.73;102535.94;4996550;28;20110;-72
2023/05/24 06:17:24;;;;;;;18.48;4.15;;;;;;;10.27;93.05;102528.91;4995705;28;20408;-72
2023/05/24 06:19:52;;;;;;;15.30;3.85;;;;;;;10.33;92.90;102533.22;4998005;28;20093;-72
2023/05/24 06:22:18;;;;;;;20.08;3.88;;;;;;;10.37;92.45;102535.81;4991059;28;20034;-72
2023/05/24 06:24:43;;;;;;;20.63;3.97;;;;;;;10.43;92.32;102534.00;4993085;28;20042;-72
2023/05/24 06:27:08;;;;;;;15.38;3.70;;;;;;;10.46;92.93;102532.19;4995634;28;20345;-72
2023/05/24 06:29:34;;;;;;;16.95;4.13;;;;;;;10.52;92.55;102539.97;4997602;28;20061;-72
2023/05/24 06:31:59;;;;;;;23.35;4.22;;;;;;;10.56;91.45;102539.03;4990099;28;20030;-72
2023/05/24 06:34:25;;;;;;;19.67;4.60;;;;;;;10.61;90.31;102538.97;4997754;28;20238;-72
2023/05/24 06:36:51;;;;;;;15.57;4.05;;;;;;;10.64;90.35;102538.94;4995688;28;20093;-72
2023/05/24 06:39:17;;;;;;;11.25;3.00;;;;;;;10.68;89.33;102540.63;4998283;28;20369;-72
2023/05/24 06:41:44;;;;;;;17.67;3.83;;;;;;;10.71;88.91;102551.09;4989684;28;20038;-72
2023/05/24 06:44:10;;;;;;;12.18;3.63;;;;;;;10.72;87.34;102533.59;4998176;28;20037;-72
2023/05/24 06:46:36;;;;;;;19.52;3.80;;;;;;;10.76;86.55;102543.13;4996877;28;20254;-72
2023/05/24 06:49:02;;;;;;;9.40;3.63;;;;;;;10.78;86.39;102543.97;4994214;28;20038;-72
2023/05/24 06:51:27;;;;;;;9.98;3.08;;;;;;;10.81;86.20;102541.31;4996266;28;20068;-72
2023/05/24 06:53:52;;;;;;;12.02;3.40;;;;;;;10.84;86.77;102541.28;4996389;28;20102;-72
2023/05/24 06:56:18;;;;;;;13.60;4.05;;;;;;;10.85;86.38;102536.91;4997187;28;20125;-72
2023/05/24 06:58:43;;;;;;;11.80;3.03;;;;;;;10.87;86.48;102537.75;4997658;28;20038;-72
2023/05/24 07:01:09;;;;;;;11.82;3.22;;;;;;;10.90;85.75;102537.72;4996330;28;20050;-72
2023/05/24 07:03:35;;;;;;;12.93;3.03;;;;;;;10.94;85.94;102532.38;4996528;28;20045;-72
2023/05/24 07:06:00;;;;;;;16.38;4.03;;;;;;;11.00;85.46;102533.19;4981190;28;20355;-72
2023/05/24 07:08:26;;;;;;;14.70;3.40;;;;;;;11.07;85.82;102537.44;4994093;28;20249;-72
2023/05/24 07:10:52;;;;;;;18.95;3.97;;;;;;;11.12;85.28;102538.25;4994749;28;20081;-72
2023/05/24 07:13:18;;;;;;;9.55;3.15;;;;;;;11.20;85.09;102538.97;4993756;28;20049;-72
2023/05/24 07:15:45;;;;;;;13.35;2.92;;;;;;;11.23;84.80;102536.31;4994135;28;20038;-72
2023/05/24 07:18:11;;;;;;;11.18;3.40;;;;;;;11.24;83.32;102543.28;4995274;28;20045;-72
2023/05/24 07:20:36;;;;;;;20.73;3.42;;;;;;;11.25;82.40;102544.16;4994762;28;20022;-72
2023/05/24 07:23:03;;;;;;;10.32;3.05;;;;;;;11.29;82.84;102538.81;4976624;28;20277;-72
2023/05/24 07:25:28;;;;;;;14.57;4.00;;;;;;;11.33;82.70;102548.38;4995981;28;20321;-72
2023/05/24 07:27:54;;;;;;;13.43;3.10;;;;;;;11.38;83.80;102545.66;4995175;28;20065;-72
2023/05/24 07:30:19;;;;;;;15.55;3.20;;;;;;;11.38;82.40;102548.28;4994026;28;20065;-72
2023/05/24 07:32:45;;;;;;;12.20;3.00;;;;;;;11.43;82.21;102548.22;4990442;28;20045;-72
2023/05/24 07:35:14;;;;;;;12.35;3.10;;;;;;;11.45;80.97;102552.53;4993734;28;20034;-72
2023/05/24 07:37:39;;;;;;;13.55;2.97;;;;;;;11.47;80.49;102556.00;4990988;28;20057;-72
2023/05/24 07:40:10;;;;;;;15.85;3.13;;;;;;;11.46;80.68;102549.03;4993807;28;20330;-72
2023/05/24 07:42:36;;;;;;;14.35;3.00;;;;;;;11.49;80.62;102550.75;4994050;28;20356;-72
2023/05/24 07:45:02;;;;;;;14.00;2.80;;;;;;;11.50;80.40;102558.59;5003556;28;20041;-72
2023/05/24 07:47:27;;;;;;;14.65;3.80;;;;;;;11.50;78.97;102553.34;5006128;28;20140;-72
2023/05/24 07:49:53;;;;;;;13.07;3.50;;;;;;;11.56;79.60;102559.38;5002472;28;20334;-72
2023/05/24 07:52:19;;;;;;;17.00;3.30;;;;;;;11.56;79.15;102544.50;4998234;28;20093;-72
2023/05/24 07:54:45;;;;;;;13.48;3.25;;;;;;;11.58;78.43;102550.56;4995453;28;20042;-72
2023/05/24 07:57:11;;;;;;;10.98;2.53;;;;;;;11.62;77.92;102551.38;5000510;28;20345;-72
2023/05/24 07:59:36;;;;;;;14.93;3.13;;;;;;;11.62;76.36;102554.88;4995503;28;20072;-72
2023/05/24 08:02:04;;;;;;;11.00;3.22;;;;;;;11.68;78.27;102551.28;4996898;28;20323;-72
2023/05/24 08:04:31;;;;;;;15.07;2.80;;;;;;;11.74;78.33;102555.56;5000336;28;20394;-72
2023/05/24 08:06:57;;;;;;;12.35;2.63;;;;;;;11.78;78.41;102555.47;4990330;28;20095;-72
2023/05/24 08:09:22;;;;;;;11.98;2.80;;;;;;;11.82;77.31;102556.28;4997225;28;20054;-72
2023/05/24 08:11:48;;;;;;;13.85;3.25;;;;;;;11.84;76.07;102560.63;4998149;28;20053;-72
2023/05/24 08:14:13;;;;;;;14.80;3.03;;;;;;;11.86;76.64;102560.56;4996862;28;20022;-72
2023/05/24 08:16:39;;;;;;;16.08;3.28;;;;;;;11.88;76.52;102554.41;4976725;28;20336;-72
2023/05/24 08:19:04;;;;;;;13.13;3.22;;;;;;;11.90;76.45;102557.91;4993788;28;20045;-72
2023/05/24 08:21:30;;;;;;;16.58;3.60;;;;;;;11.94;76.40;102557.84;4991428;28;20038;-72
2023/05/24 08:23:56;;;;;;;14.82;3.65;;;;;;;11.96;75.67;102550.81;4994079;28;20356;-72
2023/05/24 08:26:23;;;;;;;16.52;3.53;;;;;;;12.01;76.62;102549.81;4994645;28;20022;-72
2023/05/24 08:28:48;;;;;;;9.52;2.80;;;;;;;12.09;76.63;102550.53;4998580;28;20072;-72
2023/05/24 08:31:14;;;;;;;15.75;2.58;;;;;;;12.15;76.27;102552.19;4999218;28;20325;-72
2023/05/24 08:33:39;;;;;;;17.23;2.97;;;;;;;12.20;74.78;102544.19;4998444;28;20037;-72
2023/05/24 08:36:05;;;;;;;10.38;2.70;;;;;;;12.25;76.35;102544.97;4998824;28;20042;-72
2023/05/24 08:38:31;;;;;;;13.73;2.97;;;;;;;12.23;75.98;102542.38;4994859;28;20345;-72
2023/05/24 08:40:56;;;;;;;9.90;2.30;;;;;;;12.31;76.36;102543.97;4997040;28;20042;-72
2023/05/24 08:43:23;;;;;;;11.50;3.15;;;;;;;12.34;75.85;102547.41;4998337;28;20105;-72
2023/05/24 08:45:50;;;;;;;11.73;2.50;;;;;;;12.35;75.56;102541.28;4997418;28;20387;-72
2023/05/24 08:48:17;;;;;;;14.48;3.47;;;;;;;12.37;75.82;102544.72;4998312;28;20049;-72
2023/05/24 08:50:43;;;;;;;10.57;2.60;;;;;;;12.40;75.07;102544.66;4997865;28;20034;-72
2023/05/24 08:53:10;;;;;;;13.05;3.28;;;;;;;12.48;75.48;102542.72;4997828;28;20042;-72
2023/05/24 08:55:37;;;;;;;11.07;3.22;;;;;;;12.55;75.06;102547.84;4995800;28;20034;-72
2023/05/24 08:58:03;;;;;;;11.60;2.75;;;;;;;12.55;73.78;102545.22;4996487;28;20034;-72
2023/05/24 09:00:29;;;;;;;10.38;3.08;;;;;;;12.61;74.75;102543.34;4998021;28;20090;-72
2023/05/24 09:02:56;;;;;;;12.75;3.03;;;;;;;12.63;73.82;102548.56;4998756;28;20053;-72
2023/05/24 09:05:21;;;;;;;12.05;3.10;;;;;;;12.71;74.47;102548.38;4998560;28;20050;-72
2023/05/24 09:07:49;;;;;;;11.07;2.85;;;;;;;12.77;73.31;102548.22;4957619;28;1178179;-72
2023/05/24 09:10:18;;;;;;;13.50;3.58;;;;;;;12.83;72.13;102546.34;4999549;28;20230;-72
2023/05/24 09:12:47;;;;;;;12.38;2.47;;;;;;;12.95;73.10;102533.78;4998796;28;20066;-72
2023/05/24 09:15:13;;;;;;;9.18;2.72;;;;;;;13.01;72.96;102538.94;4994817;28;20082;-72
2023/05/24 09:17:39;;;;;;;10.30;2.80;;;;;;;13.07;72.55;102544.03;4998509;28;20038;-72
2023/05/24 09:20:07;;;;;;;18.20;3.10;;;;;;;13.05;73.47;102543.22;4999560;28;20042;-72
2023/05/24 09:22:33;;;;;;;11.10;3.10;;;;;;;13.01;73.04;102544.19;4999115;28;20073;-72
2023/05/24 09:25:04;;;;;;;11.73;3.25;;;;;;;12.99;72.86;102544.22;4999041;28;20034;-72
2023/05/24 09:27:32;;;;;;;10.35;2.90;;;;;;;13.04;73.09;102538.84;4998627;28;20448;-72
2023/05/24 09:29:57;;;;;;;9.38;3.33;;;;;;;13.04;72.06;102538.84;4998523;28;20206;-72
2023/05/24 09:32:23;;;;;;;10.35;2.92;;;;;;;13.11;72.69;102543.06;4993447;28;20030;-72
2023/05/24 09:34:51;;;;;;;11.02;3.03;;;;;;;13.13;70.34;102543.00;4991037;28;20038;-72
2023/05/24 09:37:20;;;;;;;6.97;2.30;;;;;;;13.16;70.15;102538.53;4989203;28;20097;-72
2023/05/24 09:39:47;;;;;;;11.40;3.17;;;;;;;13.16;69.13;102537.69;4990096;28;20127;-72
2023/05/24 09:42:23;;;;;;;11.13;3.17;;;;;;;13.21;70.26;102539.31;4993193;28;20054;-72
2023/05/24 09:44:58;;;;;;;13.93;2.88;;;;;;;13.25;71.03;102533.06;4992028;28;20031;-72
2023/05/24 09:47:30;;;;;;;9.85;2.90;;;;;;;13.24;70.58;102531.34;4997589;28;20328;-72
2023/05/24 09:49:56;;;;;;;12.80;2.45;;;;;;;13.36;71.35;102530.19;4993269;28;20064;-72
2023/05/24 09:52:21;;;;;;;12.30;2.90;;;;;;;13.37;69.23;102524.03;4997837;28;20042;-72
2023/05/24 09:54:47;;;;;;;15.60;2.72;;;;;;;13.47;69.05;102526.44;4997709;28;20030;-72
2023/05/24 09:57:16;;;;;;;16.55;2.85;;;;;;;13.54;69.52;102525.38;4998727;28;20144;-72
2023/05/24 09:59:43;;;;;;;9.00;2.67;;;;;;;13.59;68.11;102523.47;4990928;28;20094;-72
2023/05/24 10:02:10;;;;;;;15.40;3.08;;;;;;;13.66;68.26;102530.31;4997370;28;20065;-72
2023/05/24 10:04:35;;;;;;;18.15;3.45;;;;;;;13.74;67.87;102514.31;4990858;28;20377;-72
2023/05/24 10:07:02;;;;;;;10.07;2.83;;;;;;;13.73;68.14;102523.94;4993347;28;20066;-72
2023/05/24 10:09:34;;;;;;;9.73;2.85;;;;;;;13.67;68.24;102516.22;4997047;28;20038;-72
2023/05/24 10:12:04;;;;;;;8.90;2.53;;;;;;;13.60;66.92;102512.03;4997482;28;20034;-72
2023/05/24 10:14:35;;;;;;;17.23;3.13;;;;;;;13.66;66.99;102513.63;4994963;28;20084;-72
2023/05/24 10:17:03;;;;;;;8.52;2.70;;;;;;;13.69;67.71;102519.69;4989915;28;20368;-72
2023/05/24 10:19:29;;;;;;;;;;;;;;;13.80;66.87;102519.38;4989641;28;20068;-73
2023/05/24 10:21:56;;;;;;;9.80;2.50;;;;;;;13.85;66.94;102512.22;4994052;28;20210;-73
2023/05/24 10:24:24;;;;;;;12.23;2.88;;;;;;;13.92;67.11;102516.41;4993429;28;20209;-73
2023/05/24 10:26:52;;;;;;;6.78;1.92;;;;;;;13.86;65.61;102521.88;4993815;28;20052;-73
2023/05/24 10:29:47;;;;;;;7.22;2.25;;;;;;;13.76;63.86;102512.50;4996495;28;20050;-73
2023/05/24 10:32:14;;;;;;;11.02;2.65;;;;;;;13.77;65.06;102515.09;4996644;28;20034;-73
2023/05/24 10:34:41;;;;;;;10.57;3.13;;;;;;;13.86;65.77;102524.50;4997838;28;20449;-73
2023/05/24 10:37:08;;;;;;;9.43;2.53;;;;;;;13.88;64.51;102517.41;4994533;28;20075;-73
2023/05/24 10:39:34;;;;;;;8.35;2.80;;;;;;;13.97;66.27;102516.28;4996884;28;20290;-73
2023/05/24 10:42:06;;;;;;;9.82;3.25;;;;;;;13.99;65.88;102510.06;4997431;28;20041;-73
2023/05/24 10:44:32;;;;;;;8.48;3.33;;;;;;;14.07;66.00;102506.38;4996055;28;20042;-73
2023/05/24 10:47:11;;;;;;;8.20;2.70;;;;;;;14.17;66.38;102507.81;4995047;28;20038;-73
2023/05/24 10:49:38;;;;;;;8.63;2.33;;;;;;;14.24;65.13;102511.97;4988776;28;20042;-73
2023/05/24 10:52:09;;;;;;;7.28;2.30;;;;;;;14.35;64.80;102512.56;4991713;28;20076;-73
2023/05/24 10:54:35;;;;;;;15.55;3.53;;;;;;;14.40;64.55;102507.13;4995522;28;20034;-73
2023/05/24 10:57:03;;;;;;;11.57;3.10;;;;;;;14.45;64.41;102502.59;4990355;28;20034;-73
2023/05/24 10:59:33;;;;;;;8.88;2.65;;;;;;;14.49;64.84;102500.72;4995480;28;20117;-73
2023/05/24 11:02:00;;;;;;;11.23;3.00;;;;;;;14.53;64.38;102500.56;4996396;28;20033;-72
2023/05/24 11:04:30;;;;;;;17.10;3.20;;;;;;;14.59;61.73;102504.84;4996158;28;20128;-72
2023/05/24 11:07:04;;;;;;;11.20;2.75;;;;;;;14.61;62.13;102497.75;4995467;28;20042;-73
2023/05/24 11:09:29;;;;;;;8.45;2.65;;;;;;;14.66;61.66;102510.75;4994822;28;20647;-72
2023/05/24 11:12:06;;;;;;;10.55;2.95;;;;;;;14.73;61.71;102509.66;4994445;28;20030;-72
2023/05/24 11:14:39;;;;;;;15.50;2.63;;;;;;;14.82;63.44;102505.88;4989197;28;20034;-72
2023/05/24 11:17:06;;;;;;;9.02;2.53;;;;;;;14.85;61.52;102506.63;4995866;28;20265;-72
2023/05/24 11:19:35;;;;;;;11.35;2.63;;;;;;;14.85;61.91;102508.44;4995824;28;20042;-72
2023/05/24 11:22:04;;;;;;;10.73;2.35;;;;;;;14.86;62.18;102511.03;4996271;28;20022;-72
2023/05/24 11:24:31;;;;;;;7.13;2.70;;;;;;;14.96;61.43;102512.44;4997359;28;20281;-72
2023/05/24 11:26:59;;;;;;;13.90;2.80;;;;;;;14.91;60.42;102516.97;4997081;28;20038;-72